sensor_id;sensor_type;location;lat;lon;timestamp;temperature;humidity
11009;DHT22;5557;51.670;7.788;2023-06-10T00:02:00;18.90;4.40
11009;DHT22;5557;51.670;7.788;2023-06-10T00:04:30;18.80;3.80
11009;DHT22;5557;51.670;7.788;2023-06-10T00:06:57;18.70;4.00
11009;DHT22;5557;51.670;7.788;2023-06-10T00:09:24;18.80;6.20
11009;DHT22;5557;51.670;7.788;2023-06-10T00:11:52;18.80;6.20
11009;DHT22;5557;51.670;7.788;2023-06-10T00:14:19;18.80;4.50
11009;DHT22;5557;51.670;7.788;2023-06-10T00:16:46;18.90;5.00
11009;DHT22;5557;51.670;7.788;2023-06-10T00:19:13;18.80;5.00
11009;DHT22;5557;51.670;7.788;2023-06-10T00:21:42;18.90;3.40
11009;DHT22;5557;51.670;7.788;2023-06-10T00:24:11;19.00;2.60
11009;DHT22;5557;51.670;7.788;2023-06-10T00:26:39;19.00;2.40
11009;DHT22;5557;51.670;7.788;2023-06-10T00:29:07;19.00;2.40
11009;DHT22;5557;51.670;7.788;2023-06-10T00:31:36;18.90;1.90
11009;DHT22;5557;51.670;7.788;2023-06-10T00:34:03;18.90;2.40
11009;DHT22;5557;51.670;7.788;2023-06-10T00:36:31;18.80;3.80
11009;DHT22;5557;51.670;7.788;2023-06-10T00:38:58;18.70;4.50
11009;DHT22;5557;51.670;7.788;2023-06-10T00:41:25;18.70;4.80
11009;DHT22;5557;51.670;7.788;2023-06-10T00:43:54;18.60;3.40
11009;DHT22;5557;51.670;7.788;2023-06-10T00:46:24;18.60;3.20
11009;DHT22;5557;51.670;7.788;2023-06-10T00:48:52;18.60;1.90
11009;DHT22;5557;51.670;7.788;2023-06-10T00:51:19;18.60;1.00
11009;DHT22;5557;51.670;7.788;2023-06-10T00:53:47;18.60;1.00
11009;DHT22;5557;51.670;7.788;2023-06-10T00:56:14;18.60;1.00
11009;DHT22;5557;51.670;7.788;2023-06-10T00:58:42;18.60;1.00
11009;DHT22;5557;51.670;7.788;2023-06-10T01:01:09;18.60;1.00
11009;DHT22;5557;51.670;7.788;2023-06-10T01:03:39;18.70;1.00
11009;DHT22;5557;51.670;7.788;2023-06-10T01:07:09;18.60;1.00
11009;DHT22;5557;51.670;7.788;2023-06-10T01:09:33;18.50;1.00
11009;DHT22;5557;51.670;7.788;2023-06-10T01:12:34;18.30;1.00
11009;DHT22;5557;51.670;7.788;2023-06-10T01:15:04;18.30;1.00
11009;DHT22;5557;51.670;7.788;2023-06-10T01:17:32;18.30;1.00
11009;DHT22;5557;51.670;7.788;2023-06-10T01:19:59;18.30;1.00
11009;DHT22;5557;51.670;7.788;2023-06-10T01:22:26;18.30;1.00
11009;DHT22;5557;51.670;7.788;2023-06-10T01:24:59;18.30;1.00
11009;DHT22;5557;51.670;7.788;2023-06-10T01:27:30;18.30;1.00
11009;DHT22;5557;51.670;7.788;2023-06-10T01:30:04;18.20;1.00
11009;DHT22;5557;51.670;7.788;2023-06-10T01:32:42;18.20;1.00
11009;DHT22;5557;51.670;7.788;2023-06-10T01:35:10;18.20;1.00
11009;DHT22;5557;51.670;7.788;2023-06-10T01:37:39;18.20;1.00
11009;DHT22;5557;51.670;7.788;2023-06-10T01:40:07;18.20;1.00
11009;DHT22;5557;51.670;7.788;2023-06-10T01:42:35;18.10;1.00
11009;DHT22;5557;51.670;7.788;2023-06-10T01:45:02;18.10;1.00
11009;DHT22;5557;51.670;7.788;2023-06-10T01:47:30;18.20;1.00
11009;DHT22;5557;51.670;7.788;2023-06-10T01:49:57;18.10;1.00
11009;DHT22;5557;51.670;7.788;2023-06-10T01:52:24;18.00;1.00
11009;DHT22;5557;51.670;7.788;2023-06-10T01:54:51;18.00;1.00
11009;DHT22;5557;51.670;7.788;2023-06-10T01:57:18;17.90;1.00
11009;DHT22;5557;51.670;7.788;2023-06-10T01:59:58;17.90;1.00
11009;DHT22;5557;51.670;7.788;2023-06-10T02:02:25;17.80;1.00
11009;DHT22;5557;51.670;7.788;2023-06-10T02:04:53;17.80;1.00
11009;DHT22;5557;51.670;7.788;2023-06-10T02:07:20;17.70;1.00
11009;DHT22;5557;51.670;7.788;2023-06-10T02:09:47;17.70;1.00
11009;DHT22;5557;51.670;7.788;2023-06-10T02:12:14;17.50;1.00
11009;DHT22;5557;51.670;7.788;2023-06-10T02:14:43;17.40;1.00
11009;DHT22;5557;51.670;7.788;2023-06-10T02:17:11;17.40;1.00
11009;DHT22;5557;51.670;7.788;2023-06-10T02:19:39;17.40;1.00
11009;DHT22;5557;51.670;7.788;2023-06-10T02:22:09;17.30;1.00
11009;DHT22;5557;51.670;7.788;2023-06-10T02:24:37;17.30;1.00
11009;DHT22;5557;51.670;7.788;2023-06-10T02:27:06;17.30;1.00
11009;DHT22;5557;51.670;7.788;2023-06-10T02:29:34;17.20;1.00
11009;DHT22;5557;51.670;7.788;2023-06-10T02:32:02;17.10;1.00
11009;DHT22;5557;51.670;7.788;2023-06-10T02:34:30;17.10;1.00
11009;DHT22;5557;51.670;7.788;2023-06-10T02:36:57;17.10;1.00
11009;DHT22;5557;51.670;7.788;2023-06-10T02:39:24;17.10;1.00
11009;DHT22;5557;51.670;7.788;2023-06-10T02:41:51;17.00;1.00
11009;DHT22;5557;51.670;7.788;2023-06-10T02:44:19;17.00;1.00
11009;DHT22;5557;51.670;7.788;2023-06-10T02:46:47;17.00;1.00
11009;DHT22;5557;51.670;7.788;2023-06-10T02:49:13;17.00;1.00
11009;DHT22;5557;51.670;7.788;2023-06-10T02:51:40;17.00;1.00
11009;DHT22;5557;51.670;7.788;2023-06-10T02:54:07;17.00;1.00
11009;DHT22;5557;51.670;7.788;2023-06-10T02:56:34;16.90;1.00
11009;DHT22;5557;51.670;7.788;2023-06-10T02:59:03;16.90;1.00
11009;DHT22;5557;51.670;7.788;2023-06-10T03:01:30;16.90;1.00
11009;DHT22;5557;51.670;7.788;2023-06-10T03:03:58;16.80;1.00
11009;DHT22;5557;51.670;7.788;2023-06-10T03:06:25;16.80;1.00
11009;DHT22;5557;51.670;7.788;2023-06-10T03:08:53;16.80;1.00
11009;DHT22;5557;51.670;7.788;2023-06-10T03:11:20;16.80;1.00
11009;DHT22;5557;51.670;7.788;2023-06-10T03:13:47;16.80;1.00
11009;DHT22;5557;51.670;7.788;2023-06-10T03:16:14;16.80;1.00
11009;DHT22;5557;51.670;7.788;2023-06-10T03:18:41;16.80;1.00
11009;DHT22;5557;51.670;7.788;2023-06-10T03:21:08;16.80;1.00
11009;DHT22;5557;51.670;7.788;2023-06-10T03:23:35;16.70;1.00
11009;DHT22;5557;51.670;7.788;2023-06-10T03:26:02;16.70;1.00
11009;DHT22;5557;51.670;7.788;2023-06-10T03:28:31;16.80;1.00
11009;DHT22;5557;51.670;7.788;2023-06-10T03:30:58;16.80;1.00
11009;DHT22;5557;51.670;7.788;2023-06-10T03:33:25;16.80;1.00
11009;DHT22;5557;51.670;7.788;2023-06-10T03:35:52;16.70;1.00
11009;DHT22;5557;51.670;7.788;2023-06-10T03:38:19;16.70;1.00
11009;DHT22;5557;51.670;7.788;2023-06-10T03:40:47;16.70;1.00
11009;DHT22;5557;51.670;7.788;2023-06-10T03:43:14;16.80;1.00
11009;DHT22;5557;51.670;7.788;2023-06-10T03:45:41;16.80;1.00
11009;DHT22;5557;51.670;7.788;2023-06-10T03:48:08;16.90;1.00
11009;DHT22;5557;51.670;7.788;2023-06-10T03:50:36;17.20;1.00
11009;DHT22;5557;51.670;7.788;2023-06-10T03:53:03;17.50;1.00
11009;DHT22;5557;51.670;7.788;2023-06-10T03:55:30;17.80;1.00
11009;DHT22;5557;51.670;7.788;2023-06-10T03:57:57;18.20;1.00
11009;DHT22;5557;51.670;7.788;2023-06-10T04:00:25;18.40;1.00
11009;DHT22;5557;51.670;7.788;2023-06-10T04:02:53;18.60;1.00
11009;DHT22;5557;51.670;7.788;2023-06-10T04:05:20;18.70;1.00
11009;DHT22;5557;51.670;7.788;2023-06-10T04:07:48;18.80;1.00
11009;DHT22;5557;51.670;7.788;2023-06-10T04:10:15;19.20;1.00
11009;DHT22;5557;51.670;7.788;2023-06-10T04:12:42;19.60;1.00
11009;DHT22;5557;51.670;7.788;2023-06-10T04:15:09;19.80;1.00
11009;DHT22;5557;51.670;7.788;2023-06-10T04:17:37;19.90;1.00
11009;DHT22;5557;51.670;7.788;2023-06-10T04:20:05;20.10;1.00
11009;DHT22;5557;51.670;7.788;2023-06-10T04:22:34;20.30;1.00
11009;DHT22;5557;51.670;7.788;2023-06-10T04:25:01;20.50;1.00
11009;DHT22;5557;51.670;7.788;2023-06-10T04:27:29;20.60;1.00
11009;DHT22;5557;51.670;7.788;2023-06-10T04:29:57;20.80;1.00
11009;DHT22;5557;51.670;7.788;2023-06-10T04:32:24;21.30;1.00
11009;DHT22;5557;51.670;7.788;2023-06-10T04:34:51;21.50;1.00
11009;DHT22;5557;51.670;7.788;2023-06-10T04:37:18;21.80;1.00
11009;DHT22;5557;51.670;7.788;2023-06-10T04:39:45;22.20;1.00
11009;DHT22;5557;51.670;7.788;2023-06-10T04:42:12;22.60;1.00
11009;DHT22;5557;51.670;7.788;2023-06-10T04:44:39;22.60;1.00
11009;DHT22;5557;51.670;7.788;2023-06-10T04:47:07;22.80;1.00
11009;DHT22;5557;51.670;7.788;2023-06-10T04:49:36;22.70;1.00
11009;DHT22;5557;51.670;7.788;2023-06-10T04:52:04;22.70;1.00
11009;DHT22;5557;51.670;7.788;2023-06-10T04:54:32;22.70;1.00
11009;DHT22;5557;51.670;7.788;2023-06-10T04:56:59;22.60;1.00
11009;DHT22;5557;51.670;7.788;2023-06-10T04:59:27;22.60;1.00
11009;DHT22;5557;51.670;7.788;2023-06-10T05:01:55;22.40;1.00
11009;DHT22;5557;51.670;7.788;2023-06-10T05:04:22;22.40;1.00
11009;DHT22;5557;51.670;7.788;2023-06-10T05:06:49;22.50;1.00
11009;DHT22;5557;51.670;7.788;2023-06-10T05:09:16;22.70;1.00
11009;DHT22;5557;51.670;7.788;2023-06-10T05:11:43;22.90;1.00
11009;DHT22;5557;51.670;7.788;2023-06-10T05:14:13;22.90;1.00
11009;DHT22;5557;51.670;7.788;2023-06-10T05:16:43;22.90;1.00
11009;DHT22;5557;51.670;7.788;2023-06-10T05:19:10;23.10;1.00
11009;DHT22;5557;51.670;7.788;2023-06-10T05:21:38;23.30;1.00
11009;DHT22;5557;51.670;7.788;2023-06-10T05:24:05;23.20;1.00
11009;DHT22;5557;51.670;7.788;2023-06-10T05:26:33;23.00;1.00
11009;DHT22;5557;51.670;7.788;2023-06-10T05:29:07;22.80;1.00
11009;DHT22;5557;51.670;7.788;2023-06-10T05:31:35;22.80;1.00
11009;DHT22;5557;51.670;7.788;2023-06-10T05:34:02;22.60;1.00
11009;DHT22;5557;51.670;7.788;2023-06-10T05:36:29;22.60;1.00
11009;DHT22;5557;51.670;7.788;2023-06-10T05:38:56;22.70;1.00
11009;DHT22;5557;51.670;7.788;2023-06-10T05:41:23;22.60;1.00
11009;DHT22;5557;51.670;7.788;2023-06-10T05:43:50;22.70;1.00
11009;DHT22;5557;51.670;7.788;2023-06-10T05:46:17;22.60;1.00
11009;DHT22;5557;51.670;7.788;2023-06-10T05:48:44;22.80;1.00
11009;DHT22;5557;51.670;7.788;2023-06-10T05:51:12;22.70;1.00
11009;DHT22;5557;51.670;7.788;2023-06-10T05:53:39;22.60;1.00
11009;DHT22;5557;51.670;7.788;2023-06-10T05:56:06;22.60;1.00
11009;DHT22;5557;51.670;7.788;2023-06-10T05:58:33;22.50;1.00
11009;DHT22;5557;51.670;7.788;2023-06-10T06:01:00;22.90;1.00
11009;DHT22;5557;51.670;7.788;2023-06-10T06:03:27;23.10;1.00
11009;DHT22;5557;51.670;7.788;2023-06-10T06:05:55;23.40;1.00
11009;DHT22;5557;51.670;7.788;2023-06-10T06:08:22;23.20;1.00
11009;DHT22;5557;51.670;7.788;2023-06-10T06:10:50;23.50;1.00
11009;DHT22;5557;51.670;7.788;2023-06-10T06:13:17;24.00;1.00
11009;DHT22;5557;51.670;7.788;2023-06-10T06:15:44;23.90;1.00
11009;DHT22;5557;51.670;7.788;2023-06-10T06:18:11;23.50;1.00
11009;DHT22;5557;51.670;7.788;2023-06-10T06:20:38;23.70;1.00
11009;DHT22;5557;51.670;7.788;2023-06-10T06:23:05;24.30;1.00
11009;DHT22;5557;51.670;7.788;2023-06-10T06:25:33;24.40;1.00
11009;DHT22;5557;51.670;7.788;2023-06-10T06:28:02;24.40;1.00
11009;DHT22;5557;51.670;7.788;2023-06-10T06:30:29;24.40;1.00
11009;DHT22;5557;51.670;7.788;2023-06-10T06:32:56;24.40;1.00
11009;DHT22;5557;51.670;7.788;2023-06-10T06:35:24;24.40;1.00
11009;DHT22;5557;51.670;7.788;2023-06-10T06:37:51;24.60;1.00
11009;DHT22;5557;51.670;7.788;2023-06-10T06:40:18;24.30;1.00
11009;DHT22;5557;51.670;7.788;2023-06-10T06:42:45;24.50;1.00
11009;DHT22;5557;51.670;7.788;2023-06-10T06:45:12;24.70;1.00
11009;DHT22;5557;51.670;7.788;2023-06-10T06:47:39;24.80;1.00
11009;DHT22;5557;51.670;7.788;2023-06-10T06:50:06;24.30;1.00
11009;DHT22;5557;51.670;7.788;2023-06-10T06:52:34;24.10;1.00
11009;DHT22;5557;51.670;7.788;2023-06-10T06:55:02;24.10;1.00
11009;DHT22;5557;51.670;7.788;2023-06-10T06:57:29;24.10;1.00
11009;DHT22;5557;51.670;7.788;2023-06-10T06:59:57;24.30;1.00
11009;DHT22;5557;51.670;7.788;2023-06-10T07:02:25;24.70;1.00
11009;DHT22;5557;51.670;7.788;2023-06-10T07:04:52;24.90;1.00
11009;DHT22;5557;51.670;7.788;2023-06-10T07:07:22;25.10;1.00
11009;DHT22;5557;51.670;7.788;2023-06-10T07:09:49;25.10;1.00
11009;DHT22;5557;51.670;7.788;2023-06-10T07:12:16;25.30;1.00
11009;DHT22;5557;51.670;7.788;2023-06-10T07:14:44;25.50;1.00
11009;DHT22;5557;51.670;7.788;2023-06-10T07:17:11;25.70;1.00
11009;DHT22;5557;51.670;7.788;2023-06-10T07:19:38;25.50;1.00
11009;DHT22;5557;51.670;7.788;2023-06-10T07:22:07;25.30;1.00
11009;DHT22;5557;51.670;7.788;2023-06-10T07:24:35;25.60;1.00
11009;DHT22;5557;51.670;7.788;2023-06-10T07:27:03;26.00;1.00
11009;DHT22;5557;51.670;7.788;2023-06-10T07:29:30;26.30;1.00
11009;DHT22;5557;51.670;7.788;2023-06-10T07:31:58;26.60;1.00
11009;DHT22;5557;51.670;7.788;2023-06-10T07:34:25;27.00;1.00
11009;DHT22;5557;51.670;7.788;2023-06-10T07:36:52;26.80;1.00
11009;DHT22;5557;51.670;7.788;2023-06-10T07:39:19;26.70;1.00
11009;DHT22;5557;51.670;7.788;2023-06-10T07:41:46;26.70;1.00
11009;DHT22;5557;51.670;7.788;2023-06-10T07:44:13;26.70;1.00
11009;DHT22;5557;51.670;7.788;2023-06-10T07:46:41;26.60;1.00
11009;DHT22;5557;51.670;7.788;2023-06-10T07:49:08;26.70;1.00
11009;DHT22;5557;51.670;7.788;2023-06-10T07:51:35;26.70;1.00
11009;DHT22;5557;51.670;7.788;2023-06-10T07:54:03;27.10;1.00
11009;DHT22;5557;51.670;7.788;2023-06-10T07:56:30;27.10;1.00
11009;DHT22;5557;51.670;7.788;2023-06-10T07:58:58;27.40;1.00
11009;DHT22;5557;51.670;7.788;2023-06-10T08:01:25;27.50;1.00
11009;DHT22;5557;51.670;7.788;2023-06-10T08:03:52;27.40;1.00
11009;DHT22;5557;51.670;7.788;2023-06-10T08:06:19;27.20;1.00
11009;DHT22;5557;51.670;7.788;2023-06-10T08:08:46;27.30;1.00
11009;DHT22;5557;51.670;7.788;2023-06-10T08:11:14;27.70;1.00
11009;DHT22;5557;51.670;7.788;2023-06-10T08:13:42;27.80;1.00
11009;DHT22;5557;51.670;7.788;2023-06-10T08:16:09;27.90;1.00
11009;DHT22;5557;51.670;7.788;2023-06-10T08:18:37;28.30;1.00
11009;DHT22;5557;51.670;7.788;2023-06-10T08:21:04;28.50;1.00
11009;DHT22;5557;51.670;7.788;2023-06-10T08:23:31;28.60;1.00
11009;DHT22;5557;51.670;7.788;2023-06-10T08:25:58;28.50;1.00
11009;DHT22;5557;51.670;7.788;2023-06-10T08:28:25;28.50;1.00
11009;DHT22;5557;51.670;7.788;2023-06-10T08:30:52;28.70;1.00
11009;DHT22;5557;51.670;7.788;2023-06-10T08:33:23;29.20;1.00
11009;DHT22;5557;51.670;7.788;2023-06-10T08:35:50;29.20;1.00
11009;DHT22;5557;51.670;7.788;2023-06-10T08:38:17;29.60;1.00
11009;DHT22;5557;51.670;7.788;2023-06-10T08:40:44;29.30;1.00
11009;DHT22;5557;51.670;7.788;2023-06-10T08:43:18;29.50;1.00
11009;DHT22;5557;51.670;7.788;2023-06-10T08:45:48;29.70;1.00
11009;DHT22;5557;51.670;7.788;2023-06-10T08:48:16;29.90;1.00
11009;DHT22;5557;51.670;7.788;2023-06-10T08:50:44;29.60;1.00
11009;DHT22;5557;51.670;7.788;2023-06-10T08:53:14;29.90;1.00
11009;DHT22;5557;51.670;7.788;2023-06-10T08:55:48;30.00;1.00
11009;DHT22;5557;51.670;7.788;2023-06-10T08:58:18;29.50;1.00
11009;DHT22;5557;51.670;7.788;2023-06-10T09:00:46;29.00;1.00
11009;DHT22;5557;51.670;7.788;2023-06-10T09:03:14;29.20;1.00
11009;DHT22;5557;51.670;7.788;2023-06-10T09:05:41;29.60;1.00
11009;DHT22;5557;51.670;7.788;2023-06-10T09:08:10;29.10;1.00
11009;DHT22;5557;51.670;7.788;2023-06-10T09:10:38;29.20;1.00
11009;DHT22;5557;51.670;7.788;2023-06-10T09:13:05;29.30;1.00
11009;DHT22;5557;51.670;7.788;2023-06-10T09:15:32;29.50;1.00
11009;DHT22;5557;51.670;7.788;2023-06-10T09:18:00;29.50;1.00
11009;DHT22;5557;51.670;7.788;2023-06-10T09:20:28;29.80;1.00
11009;DHT22;5557;51.670;7.788;2023-06-10T09:22:55;29.30;1.00
11009;DHT22;5557;51.670;7.788;2023-06-10T09:25:35;29.10;1.00
11009;DHT22;5557;51.670;7.788;2023-06-10T09:28:03;29.20;1.00
11009;DHT22;5557;51.670;7.788;2023-06-10T09:30:32;29.20;1.00
11009;DHT22;5557;51.670;7.788;2023-06-10T09:33:02;29.40;1.00
11009;DHT22;5557;51.670;7.788;2023-06-10T09:35:30;29.90;1.00
11009;DHT22;5557;51.670;7.788;2023-06-10T09:37:59;29.70;1.00
11009;DHT22;5557;51.670;7.788;2023-06-10T09:40:27;29.90;1.00
11009;DHT22;5557;51.670;7.788;2023-06-10T09:42:59;29.30;1.00
11009;DHT22;5557;51.670;7.788;2023-06-10T09:45:32;28.90;1.00
11009;DHT22;5557;51.670;7.788;2023-06-10T09:48:01;28.80;1.00
11009;DHT22;5557;51.670;7.788;2023-06-10T09:50:33;28.80;1.00
11009;DHT22;5557;51.670;7.788;2023-06-10T09:53:00;28.80;1.00
11009;DHT22;5557;51.670;7.788;2023-06-10T09:55:33;29.20;1.00
11009;DHT22;5557;51.670;7.788;2023-06-10T09:58:00;29.10;1.00
11009;DHT22;5557;51.670;7.788;2023-06-10T10:00:27;28.90;1.00
11009;DHT22;5557;51.670;7.788;2023-06-10T10:02:55;28.80;1.00
11009;DHT22;5557;51.670;7.788;2023-06-10T10:05:22;29.00;1.00
11009;DHT22;5557;51.670;7.788;2023-06-10T10:07:51;29.00;1.00
11009;DHT22;5557;51.670;7.788;2023-06-10T10:10:20;28.80;1.00
11009;DHT22;5557;51.670;7.788;2023-06-10T10:12:52;29.00;1.00
11009;DHT22;5557;51.670;7.788;2023-06-10T10:15:21;29.00;1.00
11009;DHT22;5557;51.670;7.788;2023-06-10T10:17:53;29.20;1.00
11009;DHT22;5557;51.670;7.788;2023-06-10T10:20:27;29.20;1.00
11009;DHT22;5557;51.670;7.788;2023-06-10T10:22:57;29.20;1.00
11009;DHT22;5557;51.670;7.788;2023-06-10T10:25:28;29.40;1.00
11009;DHT22;5557;51.670;7.788;2023-06-10T10:28:11;29.50;1.00
11009;DHT22;5557;51.670;7.788;2023-06-10T10:30:50;29.60;1.00
11009;DHT22;5557;51.670;7.788;2023-06-10T10:33:20;29.50;1.00
11009;DHT22;5557;51.670;7.788;2023-06-10T10:35:50;29.40;1.00
11009;DHT22;5557;51.670;7.788;2023-06-10T10:38:18;29.10;1.00
11009;DHT22;5557;51.670;7.788;2023-06-10T10:40:47;28.90;1.00
11009;DHT22;5557;51.670;7.788;2023-06-10T10:43:15;29.00;1.00
11009;DHT22;5557;51.670;7.788;2023-06-10T10:45:42;29.50;1.00
11009;DHT22;5557;51.670;7.788;2023-06-10T10:48:12;29.70;1.00
11009;DHT22;5557;51.670;7.788;2023-06-10T10:50:41;29.40;1.00
11009;DHT22;5557;51.670;7.788;2023-06-10T10:53:09;29.20;1.00
11009;DHT22;5557;51.670;7.788;2023-06-10T10:55:36;29.20;1.00
11009;DHT22;5557;51.670;7.788;2023-06-10T10:58:07;29.30;1.00
11009;DHT22;5557;51.670;7.788;2023-06-10T11:00:43;29.50;1.00
11009;DHT22;5557;51.670;7.788;2023-06-10T11:03:14;29.60;1.00
11009;DHT22;5557;51.670;7.788;2023-06-10T11:05:49;29.80;1.00
11009;DHT22;5557;51.670;7.788;2023-06-10T11:08:46;29.90;1.00
11009;DHT22;5557;51.670;7.788;2023-06-10T11:11:23;29.90;1.00
11009;DHT22;5557;51.670;7.788;2023-06-10T11:14:07;29.60;1.00
11009;DHT22;5557;51.670;7.788;2023-06-10T11:16:41;29.40;1.00
11009;DHT22;5557;51.670;7.788;2023-06-10T11:19:34;29.60;1.00
11009;DHT22;5557;51.670;7.788;2023-06-10T11:22:03;29.70;1.00
11009;DHT22;5557;51.670;7.788;2023-06-10T11:24:30;29.90;1.00
11009;DHT22;5557;51.670;7.788;2023-06-10T11:27:20;29.90;1.00
11009;DHT22;5557;51.670;7.788;2023-06-10T11:30:18;29.80;1.00
11009;DHT22;5557;51.670;7.788;2023-06-10T11:32:52;30.00;1.00
11009;DHT22;5557;51.670;7.788;2023-06-10T11:35:27;30.30;1.00
11009;DHT22;5557;51.670;7.788;2023-06-10T11:37:55;29.60;1.00
11009;DHT22;5557;51.670;7.788;2023-06-10T11:40:22;29.60;1.00
11009;DHT22;5557;51.670;7.788;2023-06-10T11:42:49;29.70;1.00
11009;DHT22;5557;51.670;7.788;2023-06-10T11:45:16;29.70;1.00
11009;DHT22;5557;51.670;7.788;2023-06-10T11:47:58;29.80;1.00
11009;DHT22;5557;51.670;7.788;2023-06-10T11:50:33;29.90;1.00
11009;DHT22;5557;51.670;7.788;2023-06-10T11:53:00;29.70;1.00
11009;DHT22;5557;51.670;7.788;2023-06-10T11:55:45;29.40;1.00
11009;DHT22;5557;51.670;7.788;2023-06-10T11:58:20;29.30;1.00
11009;DHT22;5557;51.670;7.788;2023-06-10T12:00:49;29.40;1.00
11009;DHT22;5557;51.670;7.788;2023-06-10T12:03:17;29.60;1.00
11009;DHT22;5557;51.670;7.788;2023-06-10T12:06:17;29.40;1.00
11009;DHT22;5557;51.670;7.788;2023-06-10T12:08:44;29.10;1.00
11009;DHT22;5557;51.670;7.788;2023-06-10T12:11:11;29.00;1.00
11009;DHT22;5557;51.670;7.788;2023-06-10T12:13:48;29.10;1.00
11009;DHT22;5557;51.670;7.788;2023-06-10T12:16:16;29.20;1.00
11009;DHT22;5557;51.670;7.788;2023-06-10T12:18:44;29.20;1.00
11009;DHT22;5557;51.670;7.788;2023-06-10T12:21:19;29.20;1.00
11009;DHT22;5557;51.670;7.788;2023-06-10T12:26:45;29.30;1.00
11009;DHT22;5557;51.670;7.788;2023-06-10T12:29:23;29.20;1.00
11009;DHT22;5557;51.670;7.788;2023-06-10T12:32:03;29.10;1.00
11009;DHT22;5557;51.670;7.788;2023-06-10T12:34:38;28.80;1.00
11009;DHT22;5557;51.670;7.788;2023-06-10T12:37:09;28.80;1.00
11009;DHT22;5557;51.670;7.788;2023-06-10T12:39:40;28.80;1.00
11009;DHT22;5557;51.670;7.788;2023-06-10T12:42:13;29.00;1.00
11009;DHT22;5557;51.670;7.788;2023-06-10T12:44:40;29.10;1.00
11009;DHT22;5557;51.670;7.788;2023-06-10T12:47:11;28.90;1.00
11009;DHT22;5557;51.670;7.788;2023-06-10T12:49:41;28.90;1.00
11009;DHT22;5557;51.670;7.788;2023-06-10T12:52:08;28.80;1.00
11009;DHT22;5557;51.670;7.788;2023-06-10T12:54:35;28.90;1.00
11009;DHT22;5557;51.670;7.788;2023-06-10T12:57:02;28.90;1.00
11009;DHT22;5557;51.670;7.788;2023-06-10T12:59:29;28.90;1.00
11009;DHT22;5557;51.670;7.788;2023-06-10T13:01:58;28.50;1.00
11009;DHT22;5557;51.670;7.788;2023-06-10T13:04:25;28.40;1.00
11009;DHT22;5557;51.670;7.788;2023-06-10T13:06:53;28.40;1.00
11009;DHT22;5557;51.670;7.788;2023-06-10T13:09:21;28.50;1.00
11009;DHT22;5557;51.670;7.788;2023-06-10T13:11:48;28.70;1.00
11009;DHT22;5557;51.670;7.788;2023-06-10T13:14:15;28.80;1.00
11009;DHT22;5557;51.670;7.788;2023-06-10T13:16:42;28.70;1.00
11009;DHT22;5557;51.670;7.788;2023-06-10T13:19:11;28.70;1.00
11009;DHT22;5557;51.670;7.788;2023-06-10T13:21:38;28.60;1.00
11009;DHT22;5557;51.670;7.788;2023-06-10T13:24:07;28.60;1.00
11009;DHT22;5557;51.670;7.788;2023-06-10T13:26:34;28.50;1.00
11009;DHT22;5557;51.670;7.788;2023-06-10T13:29:01;28.50;1.00
11009;DHT22;5557;51.670;7.788;2023-06-10T13:31:28;28.50;1.00
11009;DHT22;5557;51.670;7.788;2023-06-10T13:33:56;28.50;1.00
11009;DHT22;5557;51.670;7.788;2023-06-10T13:36:23;28.40;1.00
11009;DHT22;5557;51.670;7.788;2023-06-10T13:38:50;28.40;1.00
11009;DHT22;5557;51.670;7.788;2023-06-10T13:41:17;28.50;1.00
11009;DHT22;5557;51.670;7.788;2023-06-10T13:43:44;28.50;1.00
11009;DHT22;5557;51.670;7.788;2023-06-10T13:46:11;28.60;1.00
11009;DHT22;5557;51.670;7.788;2023-06-10T13:48:38;28.50;1.00
11009;DHT22;5557;51.670;7.788;2023-06-10T13:51:05;28.40;1.00
11009;DHT22;5557;51.670;7.788;2023-06-10T13:53:34;28.40;1.00
11009;DHT22;5557;51.670;7.788;2023-06-10T13:56:01;28.40;1.00
11009;DHT22;5557;51.670;7.788;2023-06-10T13:58:28;28.50;1.00
11009;DHT22;5557;51.670;7.788;2023-06-10T14:00:55;28.60;1.00
11009;DHT22;5557;51.670;7.788;2023-06-10T14:03:22;28.50;1.00
11009;DHT22;5557;51.670;7.788;2023-06-10T14:05:50;28.40;1.00
11009;DHT22;5557;51.670;7.788;2023-06-10T14:08:17;28.60;1.00
11009;DHT22;5557;51.670;7.788;2023-06-10T14:10:45;28.40;1.00
11009;DHT22;5557;51.670;7.788;2023-06-10T14:13:12;28.40;1.00
11009;DHT22;5557;51.670;7.788;2023-06-10T14:15:39;28.60;1.00
11009;DHT22;5557;51.670;7.788;2023-06-10T14:18:06;28.60;1.00
11009;DHT22;5557;51.670;7.788;2023-06-10T14:20:33;28.60;1.00
11009;DHT22;5557;51.670;7.788;2023-06-10T14:23:00;28.60;1.00
11009;DHT22;5557;51.670;7.788;2023-06-10T14:25:28;28.40;1.00
11009;DHT22;5557;51.670;7.788;2023-06-10T14:27:57;28.30;1.00
11009;DHT22;5557;51.670;7.788;2023-06-10T14:30:27;28.30;1.00
11009;DHT22;5557;51.670;7.788;2023-06-10T14:32:54;28.50;1.00
11009;DHT22;5557;51.670;7.788;2023-06-10T14:35:21;28.60;1.00
11009;DHT22;5557;51.670;7.788;2023-06-10T14:37:48;28.50;1.00
11009;DHT22;5557;51.670;7.788;2023-06-10T14:40:15;28.50;1.00
11009;DHT22;5557;51.670;7.788;2023-06-10T14:42:43;28.30;1.00
11009;DHT22;5557;51.670;7.788;2023-06-10T14:45:10;28.30;1.00
11009;DHT22;5557;51.670;7.788;2023-06-10T14:47:37;28.30;1.00
11009;DHT22;5557;51.670;7.788;2023-06-10T14:50:05;28.40;1.00
11009;DHT22;5557;51.670;7.788;2023-06-10T14:52:33;28.40;1.00
11009;DHT22;5557;51.670;7.788;2023-06-10T14:55:00;28.50;1.00
11009;DHT22;5557;51.670;7.788;2023-06-10T14:57:27;28.60;1.00
11009;DHT22;5557;51.670;7.788;2023-06-10T14:59:54;28.50;1.00
11009;DHT22;5557;51.670;7.788;2023-06-10T15:02:23;28.40;1.00
11009;DHT22;5557;51.670;7.788;2023-06-10T15:04:53;28.30;1.00
11009;DHT22;5557;51.670;7.788;2023-06-10T15:07:20;28.30;1.00
11009;DHT22;5557;51.670;7.788;2023-06-10T15:09:47;28.30;1.00
11009;DHT22;5557;51.670;7.788;2023-06-10T15:12:14;28.30;1.00
11009;DHT22;5557;51.670;7.788;2023-06-10T15:14:41;28.30;1.00
11009;DHT22;5557;51.670;7.788;2023-06-10T15:17:08;28.40;1.00
11009;DHT22;5557;51.670;7.788;2023-06-10T15:19:35;28.40;1.00
11009;DHT22;5557;51.670;7.788;2023-06-10T15:22:03;28.50;1.00
11009;DHT22;5557;51.670;7.788;2023-06-10T15:24:31;28.50;1.00
11009;DHT22;5557;51.670;7.788;2023-06-10T15:26:58;28.30;1.00
11009;DHT22;5557;51.670;7.788;2023-06-10T15:29:27;28.20;1.00
11009;DHT22;5557;51.670;7.788;2023-06-10T15:31:54;28.10;1.00
11009;DHT22;5557;51.670;7.788;2023-06-10T15:34:21;28.20;1.00
11009;DHT22;5557;51.670;7.788;2023-06-10T15:36:51;28.40;1.00
11009;DHT22;5557;51.670;7.788;2023-06-10T15:39:18;28.30;1.00
11009;DHT22;5557;51.670;7.788;2023-06-10T15:41:45;28.40;1.00
11009;DHT22;5557;51.670;7.788;2023-06-10T15:44:12;28.40;1.00
11009;DHT22;5557;51.670;7.788;2023-06-10T15:46:39;28.40;1.00
11009;DHT22;5557;51.670;7.788;2023-06-10T15:49:07;28.30;1.00
11009;DHT22;5557;51.670;7.788;2023-06-10T15:51:37;28.30;1.00
11009;DHT22;5557;51.670;7.788;2023-06-10T15:54:04;28.40;1.00
11009;DHT22;5557;51.670;7.788;2023-06-10T15:56:32;28.40;1.00
11009;DHT22;5557;51.670;7.788;2023-06-10T15:59:00;28.30;1.00
11009;DHT22;5557;51.670;7.788;2023-06-10T16:01:27;28.30;1.00
11009;DHT22;5557;51.670;7.788;2023-06-10T16:03:54;28.20;1.00
11009;DHT22;5557;51.670;7.788;2023-06-10T16:06:21;28.10;1.00
11009;DHT22;5557;51.670;7.788;2023-06-10T16:08:48;28.20;1.00
11009;DHT22;5557;51.670;7.788;2023-06-10T16:11:17;28.10;1.00
11009;DHT22;5557;51.670;7.788;2023-06-10T16:13:44;28.10;1.00
11009;DHT22;5557;51.670;7.788;2023-06-10T16:16:11;28.20;1.00